TimeCDT,TemperatureF,Dew PointF,Humidity,Sea Level PressureIn,VisibilityMPH,Wind Direction,Wind SpeedMPH,Gust SpeedMPH,PrecipitationIn,Events,Conditions,WindDirDegrees,DateUTC
12:56 AM,70.0,64.9,84,30.02,10.0,North,10.4,-,N/A,,Scattered Clouds,360,2012-10-06 05:56:00
1:22 AM,69.8,64.4,83,30.03,10.0,North,9.2,-,N/A,,Mostly Cloudy,360,2012-10-06 06:22:00
1:56 AM,70.0,64.9,84,30.03,10.0,North,9.2,-,N/A,,Overcast,360,2012-10-06 06:56:00
2:56 AM,66.9,62.1,84,30.04,10.0,North,13.8,-,N/A,,Overcast,10,2012-10-06 07:56:00
3:35 AM,64.4,60.8,88,30.04,10.0,NE,15.0,19.6,N/A,,Overcast,40,2012-10-06 08:35:00
3:56 AM,63.0,59.0,87,30.04,10.0,NE,13.8,-,N/A,,Overcast,50,2012-10-06 08:56:00
4:18 AM,62.6,57.2,82,30.05,10.0,NNE,13.8,-,N/A,,Overcast,20,2012-10-06 09:18:00
4:56 AM,61.0,55.9,83,30.06,10.0,NE,12.7,-,N/A,,Overcast,40,2012-10-06 09:56:00
5:56 AM,59.0,54.0,83,30.09,10.0,NNE,11.5,-,N/A,,Overcast,30,2012-10-06 10:56:00
6:56 AM,57.9,52.0,81,30.10,10.0,NNE,13.8,19.6,N/A,,Overcast,20,2012-10-06 11:56:00
7:32 AM,57.2,51.8,82,30.11,10.0,NE,10.4,19.6,N/A,,Overcast,40,2012-10-06 12:32:00
7:56 AM,57.0,51.1,81,30.12,10.0,NE,12.7,-,N/A,,Overcast,40,2012-10-06 12:56:00
8:35 AM,55.4,51.8,88,30.12,10.0,NNE,12.7,20.7,N/A,,Overcast,30,2012-10-06 13:35:00
8:56 AM,55.0,50.0,83,30.13,10.0,NNE,13.8,-,N/A,,Overcast,30,2012-10-06 13:56:00
9:56 AM,54.0,48.9,83,30.14,10.0,NNE,13.8,-,N/A,,Overcast,20,2012-10-06 14:56:00
10:56 AM,54.0,48.9,83,30.14,10.0,NNE,10.4,-,N/A,,Overcast,30,2012-10-06 15:56:00
11:56 AM,54.0,48.0,80,30.14,10.0,NNE,8.1,-,N/A,,Overcast,30,2012-10-06 16:56:00
12:56 PM,55.0,48.0,77,30.13,10.0,NNE,8.1,-,N/A,,Overcast,30,2012-10-06 17:56:00
1:56 PM,55.9,46.9,72,30.12,10.0,NNE,11.5,-,N/A,,Overcast,30,2012-10-06 18:56:00
2:03 PM,55.4,46.4,72,30.12,10.0,NNE,11.5,-,N/A,,Overcast,30,2012-10-06 19:03:00
2:56 PM,55.9,46.9,72,30.10,10.0,NNE,11.5,-,N/A,,Overcast,20,2012-10-06 19:56:00
3:56 PM,54.0,46.0,75,30.11,10.0,NNE,10.4,-,N/A,,Overcast,20,2012-10-06 20:56:00
4:56 PM,54.0,46.0,75,30.10,10.0,NNE,11.5,-,N/A,,Overcast,20,2012-10-06 21:56:00
5:56 PM,53.1,45.0,74,30.12,10.0,NNE,9.2,-,N/A,,Overcast,30,2012-10-06 22:56:00
6:56 PM,52.0,44.1,74,30.14,10.0,NNE,10.4,-,N/A,,Overcast,30,2012-10-06 23:56:00
7:56 PM,51.1,43.0,74,30.16,10.0,NE,15.0,19.6,N/A,,Overcast,40,2012-10-07 00:56:00
8:56 PM,50.0,42.1,74,30.18,10.0,NNE,11.5,17.3,N/A,,Overcast,30,2012-10-07 01:56:00
9:56 PM,48.9,42.1,77,30.19,10.0,NNE,13.8,20.7,N/A,,Overcast,30,2012-10-07 02:56:00
10:56 PM,48.9,39.9,71,30.20,10.0,NE,10.4,19.6,N/A,,Overcast,40,2012-10-07 03:56:00
11:17 PM,48.2,39.2,71,30.21,10.0,NNE,11.5,-,N/A,,Overcast,20,2012-10-07 04:17:00
11:56 PM,48.9,41.0,74,30.21,10.0,North,12.7,18.4,N/A,,Overcast,10,2012-10-07 04:56:00